createdAt,value
2018-12-01T00:01:00.477Z,13.07
2018-12-01T00:03:28.337Z,14.70
2018-12-01T00:05:56.165Z,13.10
2018-12-01T00:08:24.020Z,13.23
2018-12-01T00:10:51.841Z,12.37
2018-12-01T00:13:19.641Z,10.37
2018-12-01T00:15:47.566Z,8.37
2018-12-01T00:18:15.401Z,10.70
2018-12-01T00:20:43.247Z,10.43
2018-12-01T00:23:11.057Z,9.70
2018-12-01T00:25:38.841Z,5.37
2018-12-01T00:28:06.680Z,8.47
2018-12-01T00:30:34.505Z,8.83
2018-12-01T00:33:02.522Z,7.90
2018-12-01T00:35:30.326Z,7.33
2018-12-01T00:37:58.159Z,6.93
2018-12-01T00:40:25.961Z,9.83
2018-12-01T00:42:53.753Z,8.97
2018-12-01T00:45:22.369Z,7.47
2018-12-01T00:47:51.338Z,7.90
2018-12-01T00:50:21.145Z,5.53
2018-12-01T00:52:49.724Z,10.27
2018-12-01T00:55:18.280Z,9.83
2018-12-01T00:57:45.989Z,12.50
2018-12-01T01:00:18.674Z,11.47
2018-12-01T01:02:50.447Z,8.10
2018-12-01T01:05:18.246Z,11.03
2018-12-01T01:07:46.018Z,12.50
2018-12-01T01:10:13.745Z,10.70
2018-12-01T01:12:41.489Z,11.43
2018-12-01T01:15:09.248Z,7.83
2018-12-01T01:17:37.042Z,10.27
2018-12-01T01:20:09.106Z,9.07
2018-12-01T01:22:36.861Z,8.27
2018-12-01T01:25:05.349Z,9.10
2018-12-01T01:27:33.095Z,8.47
2018-12-01T01:30:00.860Z,8.80
2018-12-01T01:32:28.589Z,8.17
2018-12-01T01:34:56.336Z,8.57
2018-12-01T01:37:24.018Z,8.50
2018-12-01T01:39:51.721Z,8.37
2018-12-01T01:42:19.461Z,8.30
2018-12-01T01:44:47.154Z,12.47
2018-12-01T01:47:14.861Z,10.83
2018-12-01T01:49:42.605Z,9.03
2018-12-01T01:52:10.318Z,10.47
2018-12-01T01:54:38.024Z,8.13
2018-12-01T01:57:05.798Z,12.43
2018-12-01T01:59:33.545Z,21.47
2018-12-01T02:02:01.277Z,15.27
2018-12-01T02:04:28.986Z,12.93
2018-12-01T02:06:56.787Z,13.07
2018-12-01T02:09:24.465Z,10.27
2018-12-01T02:11:52.203Z,13.43
2018-12-01T02:14:19.904Z,12.73
2018-12-01T02:16:47.622Z,9.97
2018-12-01T02:19:15.343Z,13.73
2018-12-01T02:21:43.026Z,14.87
2018-12-01T02:24:10.697Z,19.37
2018-12-01T02:26:38.517Z,15.73
2018-12-01T02:29:06.198Z,16.13
2018-12-01T02:31:33.875Z,17.57
2018-12-01T02:34:01.600Z,27.40
2018-12-01T02:36:29.295Z,32.07
2018-12-01T02:38:57.007Z,11.47
2018-12-01T02:41:24.721Z,19.87
2018-12-01T02:44:03.573Z,12.70
2018-12-01T02:47:35.058Z,13.23
2018-12-01T02:50:03.370Z,9.63
2018-12-01T02:52:31.077Z,18.40
2018-12-01T02:54:58.789Z,16.97
2018-12-01T02:57:26.506Z,21.33
2018-12-01T02:59:54.228Z,17.40
2018-12-01T03:02:24.080Z,19.90
2018-12-01T03:04:52.416Z,21.10
2018-12-01T03:07:20.237Z,16.20
2018-12-01T03:09:47.985Z,16.97
2018-12-01T03:12:15.717Z,14.03
2018-12-01T03:14:43.421Z,15.13
2018-12-01T03:17:11.165Z,17.60
2018-12-01T03:19:38.886Z,16.97
2018-12-01T03:22:06.577Z,11.47
2018-12-01T03:24:34.286Z,11.60
2018-12-01T03:27:01.981Z,11.27
2018-12-01T03:29:29.732Z,14.30
2018-12-01T03:31:57.474Z,12.03
2018-12-01T03:34:25.169Z,18.23
2018-12-01T03:36:52.878Z,22.57
2018-12-01T03:39:20.597Z,22.93
2018-12-01T03:41:48.389Z,23.03
2018-12-01T03:44:16.085Z,20.37
2018-12-01T03:46:43.861Z,19.40
2018-12-01T03:49:11.589Z,17.97
2018-12-01T03:51:39.278Z,21.10
2018-12-01T03:54:07.196Z,14.63
2018-12-01T03:56:34.913Z,14.57
2018-12-01T03:59:02.606Z,13.83
2018-12-01T04:01:30.346Z,18.57
2018-12-01T04:03:58.142Z,15.40
2018-12-01T04:06:25.821Z,11.47
2018-12-01T04:08:53.581Z,12.20
2018-12-01T04:11:21.258Z,8.90
2018-12-01T04:13:48.946Z,8.67
2018-12-01T04:16:16.689Z,13.27
2018-12-01T04:18:44.389Z,14.10
2018-12-01T04:21:12.077Z,18.20
2018-12-01T04:23:39.833Z,24.40
2018-12-01T04:26:07.525Z,21.07
2018-12-01T04:28:35.214Z,20.57
2018-12-01T04:31:02.929Z,20.17
2018-12-01T04:33:30.667Z,21.40
2018-12-01T04:35:58.407Z,45.67
2018-12-01T04:38:26.133Z,16.87
2018-12-01T04:40:53.840Z,21.60
2018-12-01T04:43:21.661Z,30.33
2018-12-01T04:45:49.393Z,20.13
2018-12-01T04:48:17.086Z,17.80
2018-12-01T04:50:44.812Z,13.03
2018-12-01T04:53:12.622Z,14.57
2018-12-01T04:55:40.347Z,14.17
2018-12-01T04:58:08.071Z,16.97
2018-12-01T05:00:35.811Z,17.10
2018-12-01T05:03:03.505Z,27.00
2018-12-01T05:05:31.217Z,35.00
2018-12-01T05:07:58.969Z,18.80
2018-12-01T05:10:26.729Z,18.97
2018-12-01T05:12:54.421Z,20.77
2018-12-01T05:15:22.169Z,19.07
2018-12-01T05:17:49.873Z,18.10
2018-12-01T05:20:20.607Z,15.60
2018-12-01T05:22:48.858Z,21.30
2018-12-01T05:25:16.639Z,15.80
2018-12-01T05:27:44.397Z,18.43
2018-12-01T05:30:12.151Z,16.83
2018-12-01T05:32:39.894Z,17.17
2018-12-01T05:35:13.873Z,18.03
2018-12-01T05:37:41.586Z,19.60
2018-12-01T05:40:10.433Z,18.07
2018-12-01T05:42:38.263Z,21.73
2018-12-01T05:45:09.546Z,27.40
2018-12-01T05:47:37.260Z,24.07
2018-12-01T05:50:06.395Z,29.90
2018-12-01T05:52:34.086Z,33.00
2018-12-01T05:55:01.884Z,35.90
2018-12-01T05:57:29.717Z,26.03
2018-12-01T05:59:57.389Z,28.23
2018-12-01T06:02:25.099Z,26.43
2018-12-01T06:04:52.842Z,27.03
2018-12-01T06:07:20.582Z,33.63
2018-12-01T06:09:48.288Z,36.93
2018-12-01T06:12:16.134Z,36.47
2018-12-01T06:14:43.901Z,38.90
2018-12-01T06:17:11.617Z,32.13
2018-12-01T06:19:39.400Z,33.70
2018-12-01T06:22:07.150Z,43.20
2018-12-01T06:24:34.841Z,48.23
2018-12-01T06:27:02.633Z,42.90
2018-12-01T06:29:30.336Z,30.60
2018-12-01T06:31:58.059Z,37.00
2018-12-01T06:34:25.789Z,35.80
2018-12-01T06:36:53.468Z,42.53
2018-12-01T06:39:21.184Z,38.27
2018-12-01T06:41:48.908Z,46.30
2018-12-01T06:44:16.634Z,45.97
2018-12-01T06:46:44.349Z,44.80
2018-12-01T06:49:12.092Z,52.13
2018-12-01T06:51:39.809Z,48.17
2018-12-01T06:54:07.527Z,45.53
2018-12-01T06:56:35.257Z,44.50
2018-12-01T06:59:02.941Z,49.10
2018-12-01T07:01:30.620Z,44.47
2018-12-01T07:03:58.334Z,46.53
2018-12-01T07:06:26.038Z,46.37
2018-12-01T07:08:53.822Z,47.03
2018-12-01T07:11:21.537Z,42.43
2018-12-01T07:13:49.242Z,41.90
2018-12-01T07:16:16.957Z,41.53
2018-12-01T07:18:55.777Z,43.27
2018-12-01T07:21:23.477Z,37.43
2018-12-01T07:23:51.170Z,36.67
2018-12-01T07:26:18.893Z,41.30
2018-12-01T07:28:46.597Z,36.70
2018-12-01T07:31:14.316Z,30.13
2018-12-01T07:33:42.041Z,22.70
2018-12-01T07:36:09.783Z,25.63
2018-12-01T07:38:37.510Z,22.43
2018-12-01T07:41:05.669Z,24.17
2018-12-01T07:43:33.370Z,26.83
2018-12-01T07:46:01.080Z,26.47
2018-12-01T07:48:28.808Z,28.57
2018-12-01T07:50:56.500Z,33.50
2018-12-01T07:53:24.221Z,39.50
2018-12-01T07:55:52.008Z,43.93
2018-12-01T07:58:19.744Z,40.53
2018-12-01T08:00:47.429Z,47.93
2018-12-01T08:03:15.158Z,48.53
2018-12-01T08:05:42.874Z,42.63
2018-12-01T08:08:10.575Z,43.93
2018-12-01T08:10:38.340Z,40.90
2018-12-01T08:13:06.041Z,42.20
2018-12-01T08:15:33.757Z,42.23
2018-12-01T08:18:01.632Z,41.87
2018-12-01T08:20:29.317Z,41.23
2018-12-01T08:22:57.006Z,37.50
2018-12-01T08:25:24.734Z,38.93
2018-12-01T08:27:54.004Z,38.83
2018-12-01T08:30:25.985Z,36.60
2018-12-01T08:32:53.717Z,41.57
2018-12-01T08:35:21.715Z,47.20
2018-12-01T08:37:49.464Z,44.13
2018-12-01T08:40:18.441Z,45.83
2018-12-01T08:42:46.158Z,36.50
2018-12-01T08:45:13.977Z,41.00
2018-12-01T08:47:42.016Z,44.70
2018-12-01T08:50:15.673Z,29.60
2018-12-01T08:52:43.421Z,42.63
2018-12-01T08:55:13.536Z,34.57
2018-12-01T08:57:41.313Z,30.10
2018-12-01T09:00:17.454Z,32.03
2018-12-01T09:02:46.269Z,27.43
2018-12-01T09:05:14.001Z,27.17
2018-12-01T09:07:41.681Z,23.63
2018-12-01T09:10:10.105Z,27.73
2018-12-01T09:12:37.807Z,28.23
2018-12-01T09:15:08.866Z,27.40
2018-12-01T09:17:37.294Z,25.40
2018-12-01T09:20:07.615Z,25.33
2018-12-01T09:22:35.326Z,28.40
2018-12-01T09:25:03.129Z,29.33
2018-12-01T09:27:30.814Z,24.87
2018-12-01T09:29:58.624Z,29.47
2018-12-01T09:32:26.365Z,34.07
2018-12-01T09:34:54.085Z,31.07
2018-12-01T09:37:21.813Z,28.87
2018-12-01T09:39:49.543Z,27.97
2018-12-01T09:42:17.339Z,29.40
2018-12-01T09:44:45.073Z,27.73
2018-12-01T09:47:12.790Z,25.20
2018-12-01T09:49:40.506Z,21.87
2018-12-01T09:52:08.260Z,22.30
2018-12-01T09:54:36.087Z,34.03
2018-12-01T09:57:03.821Z,19.57
2018-12-01T09:59:31.602Z,24.83
2018-12-01T10:01:59.355Z,23.90
2018-12-01T10:04:27.037Z,28.20
2018-12-01T10:06:54.746Z,28.27
2018-12-01T10:09:22.518Z,27.83
2018-12-01T10:11:50.598Z,27.67
2018-12-01T10:14:18.085Z,28.63
2018-12-01T10:16:45.829Z,23.60
2018-12-01T10:19:13.518Z,21.43
2018-12-01T10:21:41.221Z,23.63
2018-12-01T10:24:08.984Z,21.77
2018-12-01T10:26:36.669Z,25.00
2018-12-01T10:29:04.546Z,27.43
2018-12-01T10:31:32.334Z,27.43
2018-12-01T10:34:00.022Z,29.50
2018-12-01T10:36:28.992Z,41.17
2018-12-01T10:38:55.625Z,36.10
2018-12-01T10:41:23.331Z,35.40
2018-12-01T10:43:51.013Z,38.43
2018-12-01T10:46:18.839Z,38.87
2018-12-01T10:48:46.549Z,41.10
2018-12-01T10:51:14.250Z,39.13
2018-12-01T10:53:41.969Z,35.43
2018-12-01T10:56:09.729Z,42.00
2018-12-01T10:58:37.501Z,43.43
2018-12-01T11:03:18.611Z,41.23
2018-12-01T11:05:46.400Z,38.13
2018-12-01T11:08:15.024Z,47.83
2018-12-01T11:10:42.975Z,41.77
2018-12-01T11:13:10.735Z,40.10
2018-12-01T11:15:38.481Z,39.13
2018-12-01T11:18:06.261Z,30.30
2018-12-01T11:20:34.021Z,39.30
2018-12-01T11:23:01.782Z,39.47
2018-12-01T11:25:29.600Z,33.20
2018-12-01T11:27:57.410Z,32.07
2018-12-01T11:30:25.120Z,31.10
2018-12-01T11:32:52.977Z,37.73
2018-12-01T11:35:20.692Z,34.53
2018-12-01T11:37:48.433Z,34.97
2018-12-01T11:40:17.208Z,37.43
2018-12-01T11:42:45.059Z,29.90
2018-12-01T11:45:13.908Z,32.93
2018-12-01T11:47:41.669Z,27.97
2018-12-01T11:50:18.701Z,27.83
2018-12-01T11:52:47.337Z,24.17
2018-12-01T11:55:16.390Z,34.43
2018-12-01T11:57:44.125Z,29.80
2018-12-01T12:00:19.041Z,22.23
2018-12-01T12:02:46.810Z,23.17
2018-12-01T12:05:15.272Z,20.27
2018-12-01T12:07:54.134Z,26.30
2018-12-01T12:10:21.882Z,24.23
2018-12-01T12:12:50.162Z,10.80
2018-12-01T12:15:18.573Z,22.63
2018-12-01T12:17:48.753Z,14.10
2018-12-01T12:20:16.461Z,21.60
2018-12-01T12:22:44.277Z,17.37
2018-12-01T12:25:12.017Z,13.30
2018-12-01T12:27:39.761Z,14.47
2018-12-01T12:30:12.541Z,12.50
2018-12-01T12:32:40.365Z,10.20
2018-12-01T12:35:09.297Z,24.53
2018-12-01T12:37:36.989Z,10.93
2018-12-01T12:40:09.189Z,16.97
2018-12-01T12:42:36.905Z,12.97
2018-12-01T12:45:06.816Z,26.73
2018-12-01T12:47:34.541Z,28.43
2018-12-01T12:50:02.274Z,24.27
2018-12-01T12:52:29.940Z,31.53
2018-12-01T12:54:57.669Z,27.73
2018-12-01T12:57:25.388Z,26.70
2018-12-01T12:59:53.072Z,24.60
2018-12-01T13:02:20.785Z,23.83
2018-12-01T13:04:48.510Z,23.77
2018-12-01T13:07:16.221Z,20.47
2018-12-01T13:09:43.945Z,12.63
2018-12-01T13:12:11.682Z,20.80
2018-12-01T13:14:39.381Z,22.10
2018-12-01T13:17:07.083Z,25.20
2018-12-01T13:19:34.819Z,26.47
2018-12-01T13:22:02.530Z,29.83
2018-12-01T13:24:30.254Z,25.33
2018-12-01T13:26:58.020Z,21.27
2018-12-01T13:29:25.809Z,19.33
2018-12-01T13:31:54.567Z,14.33
2018-12-01T13:34:21.422Z,14.07
2018-12-01T13:36:49.163Z,10.17
2018-12-01T13:39:16.893Z,21.67
2018-12-01T13:41:44.641Z,20.97
2018-12-01T13:44:12.357Z,18.73
2018-12-01T13:46:40.094Z,16.67
2018-12-01T13:49:07.863Z,14.50
2018-12-01T13:51:35.602Z,17.20
2018-12-01T13:54:03.346Z,25.77
2018-12-01T13:56:31.065Z,24.73
2018-12-01T13:58:58.763Z,27.00
2018-12-01T14:01:26.480Z,23.50
2018-12-01T14:03:54.208Z,20.60
2018-12-01T14:06:21.958Z,27.30
2018-12-01T14:08:49.786Z,25.37
2018-12-01T14:11:17.557Z,21.53
2018-12-01T14:13:45.277Z,27.87
2018-12-01T14:16:13.001Z,23.03
2018-12-01T14:18:40.804Z,27.20
2018-12-01T14:21:08.501Z,13.13
2018-12-01T14:23:36.209Z,29.00
2018-12-01T14:26:04.279Z,28.00
2018-12-01T14:28:32.001Z,34.87
2018-12-01T14:30:59.735Z,42.87
2018-12-01T14:33:27.501Z,30.33
2018-12-01T14:35:55.249Z,29.93
2018-12-01T14:38:22.986Z,41.27
2018-12-01T14:40:51.063Z,41.37
2018-12-01T14:43:21.440Z,36.17
2018-12-01T14:45:49.674Z,38.60
2018-12-01T14:48:17.410Z,39.57
2018-12-01T14:50:48.567Z,46.17
2018-12-01T14:53:15.385Z,49.47
2018-12-01T14:55:43.121Z,52.17
2018-12-01T14:58:10.842Z,47.27
2018-12-01T15:00:38.549Z,50.70
2018-12-01T15:03:07.217Z,59.43
2018-12-01T15:05:34.921Z,31.70
2018-12-01T15:08:02.722Z,47.93
2018-12-01T15:10:30.501Z,55.10
2018-12-01T15:12:58.262Z,60.57
2018-12-01T15:15:26.863Z,61.83
2018-12-01T15:17:54.693Z,67.43
2018-12-01T15:20:23.503Z,56.87
2018-12-01T15:22:52.281Z,45.40
2018-12-01T15:25:22.436Z,52.93
2018-12-01T15:27:50.214Z,63.83
2018-12-01T15:30:19.874Z,84.67
2018-12-01T15:32:52.067Z,77.97
2018-12-01T15:35:19.833Z,64.47
2018-12-01T15:37:47.623Z,52.43
2018-12-01T15:40:16.637Z,114.00
2018-12-01T15:42:44.384Z,100.30
2018-12-01T15:45:13.599Z,132.70
2018-12-01T15:47:41.477Z,112.80
2018-12-01T15:50:10.813Z,84.03
2018-12-01T15:52:38.664Z,179.10
2018-12-01T15:55:10.258Z,86.87
2018-12-01T15:57:38.064Z,67.30
2018-12-01T16:00:14.276Z,92.50
2018-12-01T16:02:42.012Z,72.77
2018-12-01T16:05:10.940Z,59.80
2018-12-01T16:07:38.810Z,77.57
2018-12-01T16:10:09.921Z,110.23
2018-12-01T16:12:37.656Z,49.70
2018-12-01T16:15:10.093Z,77.63
2018-12-01T16:17:38.010Z,64.90
2018-12-01T16:20:08.205Z,62.73
2018-12-01T16:22:36.093Z,77.97
2018-12-01T16:25:04.385Z,51.67
2018-12-01T16:27:32.157Z,56.63
2018-12-01T16:30:00.020Z,69.77
2018-12-01T16:32:27.699Z,78.90
2018-12-01T16:34:55.417Z,88.67
2018-12-01T16:37:23.168Z,83.90
2018-12-01T16:39:51.002Z,84.37
2018-12-01T16:42:18.773Z,87.63
2018-12-01T16:44:46.522Z,98.90
2018-12-01T16:47:14.287Z,117.27
2018-12-01T16:49:42.060Z,79.77
2018-12-01T16:52:09.814Z,84.80
2018-12-01T16:54:37.565Z,104.67
2018-12-01T16:57:05.655Z,65.53
2018-12-01T16:59:33.500Z,84.53
2018-12-01T17:02:01.232Z,105.60
2018-12-01T17:04:28.950Z,71.13
2018-12-01T17:06:56.730Z,74.77
2018-12-01T17:09:24.405Z,56.63
2018-12-01T17:11:52.137Z,64.30
2018-12-01T17:14:19.965Z,56.27
2018-12-01T17:16:47.704Z,63.77
2018-12-01T17:19:15.495Z,60.90
2018-12-01T17:21:43.221Z,70.23
2018-12-01T17:24:10.946Z,66.87
2018-12-01T17:26:38.653Z,63.67
2018-12-01T17:29:06.742Z,99.90
2018-12-01T17:31:34.470Z,159.93
2018-12-01T17:34:02.222Z,157.47
2018-12-01T17:36:30.045Z,96.43
2018-12-01T17:38:57.806Z,93.53
2018-12-01T17:41:28.026Z,88.27
2018-12-01T17:43:59.006Z,85.80
2018-12-01T17:46:26.757Z,83.77
2018-12-01T17:48:54.578Z,86.03
2018-12-01T17:51:22.429Z,88.37
2018-12-01T17:53:53.220Z,86.83
2018-12-01T17:56:20.953Z,80.40
2018-12-01T17:58:48.851Z,71.13
2018-12-01T18:01:16.573Z,65.10
2018-12-01T18:03:44.310Z,71.43
2018-12-01T18:06:12.954Z,63.83
2018-12-01T18:08:40.779Z,69.50
2018-12-01T18:11:09.561Z,250.00
2018-12-01T18:13:37.307Z,86.93
2018-12-01T18:16:05.822Z,57.70
2018-12-01T18:18:33.553Z,53.27
2018-12-01T18:21:01.400Z,47.57
2018-12-01T18:23:29.167Z,51.00
2018-12-01T18:25:56.926Z,70.00
2018-12-01T18:28:27.930Z,57.37
2018-12-01T18:30:56.248Z,57.40
2018-12-01T18:33:27.025Z,57.87
2018-12-01T18:35:54.760Z,58.97
2018-12-01T18:38:22.499Z,55.20
2018-12-01T18:40:50.217Z,65.33
2018-12-01T18:43:18.033Z,55.77
2018-12-01T18:45:47.549Z,70.77
2018-12-01T18:48:15.251Z,76.73
2018-12-01T18:50:42.997Z,101.77
2018-12-01T18:53:11.033Z,90.20
2018-12-01T18:55:40.964Z,92.40
2018-12-01T18:58:09.565Z,91.67
2018-12-01T19:00:47.032Z,82.97
2018-12-01T19:03:14.892Z,80.33
2018-12-01T19:05:42.618Z,65.37
2018-12-01T19:08:10.337Z,56.80
2018-12-01T19:10:38.106Z,55.63
2018-12-01T19:13:06.561Z,59.50
2018-12-01T19:15:34.282Z,63.83
2018-12-01T19:18:02.029Z,73.83
2018-12-01T19:20:29.794Z,81.83
2018-12-01T19:22:57.488Z,107.33
2018-12-01T19:25:25.256Z,89.97
2018-12-01T19:27:53.970Z,87.77
2018-12-01T19:30:22.044Z,83.13
2018-12-01T19:32:52.208Z,79.73
2018-12-01T19:35:19.917Z,82.47
2018-12-01T19:37:48.861Z,85.37
2018-12-01T19:40:28.454Z,84.33
2018-12-01T19:42:50.821Z,78.73
2018-12-01T19:45:18.545Z,78.03
2018-12-01T19:47:46.302Z,68.73
2018-12-01T19:50:18.337Z,73.53
2018-12-01T19:52:46.048Z,79.03
2018-12-01T19:55:14.106Z,63.50
2018-12-01T19:57:42.381Z,48.73
2018-12-01T20:00:27.065Z,43.93
2018-12-01T20:02:55.640Z,51.37
2018-12-01T20:05:23.349Z,59.10
2018-12-01T20:07:51.761Z,117.10
2018-12-01T20:10:32.778Z,153.80
2018-12-01T20:13:03.573Z,168.60
2018-12-01T20:15:47.548Z,203.23
2018-12-01T20:18:20.609Z,146.00
2018-12-01T20:20:48.324Z,102.50
2018-12-01T20:23:16.009Z,84.30
2018-12-01T20:25:44.989Z,52.50
2018-12-01T20:28:12.714Z,43.47
2018-12-01T20:30:40.426Z,42.87
2018-12-01T20:33:08.153Z,95.67
2018-12-01T20:35:48.584Z,64.60
2018-12-01T20:38:19.869Z,73.23
2018-12-01T20:40:47.569Z,57.90
2018-12-01T20:43:15.246Z,86.40
2018-12-01T20:45:43.074Z,51.37
2018-12-01T20:48:10.998Z,54.37
2018-12-01T20:50:38.705Z,54.73
2018-12-01T20:53:07.345Z,58.23
2018-12-01T20:55:35.051Z,55.67
2018-12-01T20:58:04.085Z,56.63
2018-12-01T21:00:31.822Z,62.40
2018-12-01T21:02:59.568Z,52.13
2018-12-01T21:05:27.297Z,52.53
2018-12-01T21:07:55.045Z,54.47
2018-12-01T21:10:24.833Z,66.63
2018-12-01T21:12:52.918Z,60.00
2018-12-01T21:15:20.720Z,67.40
2018-12-01T21:17:48.449Z,67.30
2018-12-01T21:20:17.085Z,69.37
2018-12-01T21:22:46.274Z,73.70
2018-12-01T21:25:15.450Z,87.23
2018-12-01T21:27:43.179Z,99.77
2018-12-01T21:30:12.580Z,76.00
2018-12-01T21:32:40.389Z,88.47
2018-12-01T21:35:09.973Z,84.20
2018-12-01T21:37:37.814Z,73.00
2018-12-01T21:40:12.293Z,84.10
2018-12-01T21:42:40.044Z,80.80
2018-12-01T21:45:09.685Z,83.60
2018-12-01T21:47:37.437Z,70.20
2018-12-01T21:50:14.061Z,99.50
2018-12-01T21:52:42.759Z,79.90
2018-12-01T21:55:11.141Z,74.13
2018-12-01T21:57:39.652Z,77.00
2018-12-01T22:00:13.207Z,77.63
2018-12-01T22:02:40.949Z,89.03
2018-12-01T22:05:11.030Z,82.77
2018-12-01T22:07:38.766Z,76.50
2018-12-01T22:10:09.652Z,82.87
2018-12-01T22:12:37.396Z,73.77
2018-12-01T22:15:06.945Z,65.40
2018-12-01T22:17:34.713Z,278.67
2018-12-01T22:20:02.417Z,58.30
2018-12-01T22:22:30.128Z,48.27
2018-12-01T22:24:57.872Z,44.67
2018-12-01T22:27:25.554Z,49.87
2018-12-01T22:29:53.245Z,54.53
2018-12-01T22:32:20.962Z,56.33
2018-12-01T22:34:48.670Z,57.93
2018-12-01T22:37:16.399Z,59.37
2018-12-01T22:39:44.133Z,59.60
2018-12-01T22:42:11.808Z,70.73
2018-12-01T22:44:39.521Z,86.97
2018-12-01T22:47:07.285Z,92.67
2018-12-01T22:49:35.023Z,90.27
2018-12-01T22:52:02.738Z,91.00
2018-12-01T22:54:30.458Z,87.60
2018-12-01T22:56:58.132Z,90.70
2018-12-01T22:59:25.824Z,96.67
2018-12-01T23:01:53.636Z,89.60
2018-12-01T23:04:21.325Z,94.97
2018-12-01T23:06:49.050Z,81.77
2018-12-01T23:09:16.749Z,80.93
2018-12-01T23:11:44.452Z,79.10
2018-12-01T23:14:12.133Z,88.20
2018-12-01T23:16:39.882Z,84.73
2018-12-01T23:19:07.577Z,93.43
2018-12-01T23:21:35.304Z,73.53
2018-12-01T23:24:03.119Z,78.33
2018-12-01T23:26:30.809Z,75.20
2018-12-01T23:28:58.540Z,73.30
2018-12-01T23:31:26.236Z,80.43
2018-12-01T23:33:53.904Z,81.17
2018-12-01T23:36:21.609Z,81.10
2018-12-01T23:38:49.324Z,75.03
2018-12-01T23:41:17.049Z,51.20
2018-12-01T23:43:44.725Z,50.60
2018-12-01T23:46:12.440Z,46.07
2018-12-01T23:48:40.149Z,48.63
2018-12-01T23:51:07.873Z,49.60
2018-12-01T23:53:35.574Z,37.47
2018-12-01T23:56:03.287Z,36.70
2018-12-01T23:58:30.970Z,34.23
